Time,TemperatureF,DewpointF,PressureIn,WindDirection,WindDirectionDegrees,WindSpeedMPH,WindSpeedGustMPH,Humidity,HourlyPrecipIn,Conditions,Clouds,dailyrainin,SoftwareType,DateUTC
2013-04-06 00:04:00,-999.0,-99.9,29.95,North,-999,-999.0,-999.0,-999,-99.99,,,0.00,weatherlink.com 1.10,2013-04-06 04:04:00,
2013-04-06 00:34:00,-999.0,-99.9,29.97,North,-999,-999.0,-999.0,-999,-99.99,,,0.00,weatherlink.com 1.10,2013-04-06 04:34:00,
2013-04-06 00:49:00,-999.0,-99.9,29.98,North,-999,-999.0,-999.0,-999,-99.99,,,0.00,weatherlink.com 1.10,2013-04-06 04:49:00,
2013-04-06 01:04:00,-999.0,-99.9,29.99,North,-999,-999.0,-999.0,-999,-99.99,,,0.00,weatherlink.com 1.10,2013-04-06 05:04:00,
2013-04-06 01:19:00,-999.0,-99.9,30.00,North,-999,-999.0,-999.0,-999,-99.99,,,0.00,weatherlink.com 1.10,2013-04-06 05:19:00,
2013-04-06 01:34:00,-999.0,-99.9,30.00,North,-999,-999.0,-999.0,-999,-99.99,,,0.00,weatherlink.com 1.10,2013-04-06 05:34:00,
2013-04-06 01:49:00,-999.0,-99.9,30.01,North,-999,-999.0,-999.0,-999,-99.99,,,0.00,weatherlink.com 1.10,2013-04-06 05:49:00,
2013-04-06 02:04:00,-999.0,-99.9,30.01,North,-999,-999.0,-999.0,-999,-99.99,,,0.00,weatherlink.com 1.10,2013-04-06 06:04:00,
2013-04-06 02:34:00,-999.0,-99.9,30.03,North,-999,-999.0,-999.0,-999,-99.99,,,0.00,weatherlink.com 1.10,2013-04-06 06:34:00,
2013-04-06 02:49:00,-999.0,-99.9,30.03,North,-999,-999.0,-999.0,-999,-99.99,,,0.00,weatherlink.com 1.10,2013-04-06 06:49:00,
2013-04-06 03:14:00,-999.0,-99.9,30.04,North,-999,-999.0,-999.0,-999,-99.99,,,0.00,weatherlink.com 1.10,2013-04-06 07:14:00,
2013-04-06 03:34:00,-999.0,-99.9,30.05,North,-999,-999.0,-999.0,-999,-99.99,,,0.00,weatherlink.com 1.10,2013-04-06 07:34:00,
2013-04-06 03:49:00,-999.0,-99.9,30.05,North,-999,-999.0,-999.0,-999,-99.99,,,0.00,weatherlink.com 1.10,2013-04-06 07:49:00,
2013-04-06 04:04:00,-999.0,-99.9,30.07,North,-999,-999.0,-999.0,-999,-99.99,,,0.00,weatherlink.com 1.10,2013-04-06 08:04:00,
2013-04-06 04:19:00,-999.0,-99.9,30.07,North,-999,-999.0,-999.0,-999,-99.99,,,0.00,weatherlink.com 1.10,2013-04-06 08:19:00,
2013-04-06 04:34:00,-999.0,-99.9,30.08,North,-999,-999.0,-999.0,-999,-99.99,,,0.00,weatherlink.com 1.10,2013-04-06 08:34:00,
2013-04-06 04:49:00,-999.0,-99.9,30.09,North,-999,-999.0,-999.0,-999,-99.99,,,0.00,weatherlink.com 1.10,2013-04-06 08:49:00,
2013-04-06 06:19:00,-999.0,-99.9,30.15,North,-999,-999.0,-999.0,-999,-99.99,,,0.00,weatherlink.com 1.10,2013-04-06 10:19:00,
2013-04-06 06:34:00,-999.0,-99.9,30.16,North,-999,-999.0,-999.0,-999,-99.99,,,0.00,weatherlink.com 1.10,2013-04-06 10:34:00,
2013-04-06 06:49:00,-999.0,-99.9,30.17,North,-999,-999.0,-999.0,-999,-99.99,,,0.00,weatherlink.com 1.10,2013-04-06 10:49:00,
2013-04-06 07:04:00,-999.0,-99.9,30.18,North,-999,-999.0,-999.0,-999,-99.99,,,0.00,weatherlink.com 1.10,2013-04-06 11:04:00,
2013-04-06 07:19:00,-999.0,-99.9,30.19,North,-999,-999.0,-999.0,-999,-99.99,,,0.00,weatherlink.com 1.10,2013-04-06 11:19:00,
2013-04-06 07:34:00,-999.0,-99.9,30.20,North,-999,-999.0,-999.0,-999,-99.99,,,0.00,weatherlink.com 1.10,2013-04-06 11:34:00,
2013-04-06 07:49:00,-999.0,-99.9,30.21,North,-999,-999.0,-999.0,-999,-99.99,,,0.00,weatherlink.com 1.10,2013-04-06 11:49:00,
2013-04-06 08:04:00,41.3,29.0,30.23,NE,42,16.0,-999.0,62,-99.99,,,0.00,weatherlink.com 1.10,2013-04-06 12:04:00,
2013-04-06 08:22:00,41.2,29.0,30.23,NE,42,17.0,-999.0,61,-99.99,,,0.00,weatherlink.com 1.10,2013-04-06 12:22:00,
2013-04-06 08:34:00,41.3,29.0,30.24,NE,40,13.0,-999.0,61,-99.99,,,0.00,weatherlink.com 1.10,2013-04-06 12:34:00,
2013-04-06 08:49:00,41.4,28.0,30.24,NE,45,15.0,-999.0,60,-99.99,,,0.00,weatherlink.com 1.10,2013-04-06 12:49:00,
2013-04-06 09:04:00,41.4,27.0,30.25,NNE,33,20.0,-999.0,56,-99.99,,,0.00,weatherlink.com 1.10,2013-04-06 13:04:00,
2013-04-06 09:19:00,41.4,27.0,30.26,NE,40,15.0,-999.0,58,-99.99,,,0.00,weatherlink.com 1.10,2013-04-06 13:19:00,
2013-04-06 09:34:00,41.1,27.0,30.26,NE,40,14.0,-999.0,57,-99.99,,,0.00,weatherlink.com 1.10,2013-04-06 13:34:00,
2013-04-06 09:49:00,41.4,26.0,30.26,NE,40,15.0,-999.0,54,-99.99,,,0.00,weatherlink.com 1.10,2013-04-06 13:49:00,
2013-04-06 10:04:00,41.7,26.0,30.26,NE,38,14.0,-999.0,53,-99.99,,,0.00,weatherlink.com 1.10,2013-04-06 14:04:00,
2013-04-06 10:19:00,42.0,24.0,30.27,NE,51,7.0,-999.0,50,-99.99,,,0.00,weatherlink.com 1.10,2013-04-06 14:19:00,
2013-04-06 10:34:00,42.3,24.0,30.28,NE,38,7.0,-999.0,49,-99.99,,,0.00,weatherlink.com 1.10,2013-04-06 14:34:00,
2013-04-06 10:49:00,42.2,23.0,30.29,NE,44,12.0,-999.0,47,-99.99,,,0.00,weatherlink.com 1.10,2013-04-06 14:49:00,
2013-04-06 11:04:00,42.5,22.0,30.29,NE,51,9.0,-999.0,45,-99.99,,,0.00,weatherlink.com 1.10,2013-04-06 15:04:00,
2013-04-06 11:19:00,43.3,23.0,30.29,NE,37,10.0,-999.0,45,-99.99,,,0.00,weatherlink.com 1.10,2013-04-06 15:19:00,
2013-04-06 11:34:00,43.6,24.0,30.30,NE,44,8.0,-999.0,46,-99.99,,,0.00,weatherlink.com 1.10,2013-04-06 15:34:00,
2013-04-06 11:49:00,44.5,24.0,30.30,NNE,21,6.0,-999.0,45,-99.99,,,0.00,weatherlink.com 1.10,2013-04-06 15:49:00,
2013-04-06 12:04:00,45.0,25.0,30.30,NNE,16,3.0,-999.0,46,-99.99,,,0.00,weatherlink.com 1.10,2013-04-06 16:04:00,
2013-04-06 12:19:00,45.2,25.0,30.30,North,5,7.0,-999.0,45,-99.99,,,0.00,weatherlink.com 1.10,2013-04-06 16:19:00,
2013-04-06 12:34:00,45.4,24.0,30.30,NNE,14,4.0,-999.0,44,-99.99,,,0.00,weatherlink.com 1.10,2013-04-06 16:34:00,
2013-04-06 12:49:00,46.0,24.0,30.30,NNE,16,5.0,-999.0,42,-99.99,,,0.00,weatherlink.com 1.10,2013-04-06 16:49:00,
2013-04-06 13:04:00,46.0,24.0,30.30,NNE,12,5.0,-999.0,42,-99.99,,,0.00,weatherlink.com 1.10,2013-04-06 17:04:00,
2013-04-06 13:19:00,46.7,24.0,30.30,North,360,7.0,-999.0,41,-99.99,,,0.00,weatherlink.com 1.10,2013-04-06 17:19:00,
2013-04-06 13:34:00,46.6,24.0,30.30,North,5,9.0,-999.0,42,-99.99,,,0.00,weatherlink.com 1.10,2013-04-06 17:34:00,
2013-04-06 13:49:00,46.7,24.0,30.30,North,5,5.0,-999.0,41,-99.99,,,0.00,weatherlink.com 1.10,2013-04-06 17:49:00,
2013-04-06 14:04:00,46.8,23.0,30.30,North,5,6.0,-999.0,40,-99.99,,,0.00,weatherlink.com 1.10,2013-04-06 18:04:00,
2013-04-06 14:19:00,47.9,24.0,30.29,NNE,17,5.0,-999.0,39,-99.99,,,0.00,weatherlink.com 1.10,2013-04-06 18:19:00,
2013-04-06 14:34:00,48.4,22.0,30.29,NNE,15,8.0,-999.0,35,-99.99,,,0.00,weatherlink.com 1.10,2013-04-06 18:34:00,
2013-04-06 14:49:00,49.4,24.0,30.29,NNE,16,3.0,-999.0,37,-99.99,,,0.00,weatherlink.com 1.10,2013-04-06 18:49:00,
2013-04-06 15:05:00,48.2,22.0,30.29,NNE,17,0.0,-999.0,36,-99.99,,,0.00,weatherlink.com 1.10,2013-04-06 19:05:00,
2013-04-06 15:19:00,48.1,22.0,30.28,NNE,17,0.0,-999.0,36,-99.99,,,0.00,weatherlink.com 1.10,2013-04-06 19:19:00,
2013-04-06 15:34:00,48.8,21.0,30.28,NNE,17,0.0,-999.0,34,-99.99,,,0.00,weatherlink.com 1.10,2013-04-06 19:34:00,
2013-04-06 15:49:00,48.1,22.0,30.27,NNE,17,0.0,-999.0,36,-99.99,,,0.00,weatherlink.com 1.10,2013-04-06 19:49:00,
2013-04-06 16:04:00,48.1,23.0,30.27,NNE,30,0.0,-999.0,38,-99.99,,,0.00,weatherlink.com 1.10,2013-04-06 20:04:00,
2013-04-06 16:19:00,48.6,24.0,30.26,NNE,31,0.0,-999.0,38,-99.99,,,0.00,weatherlink.com 1.10,2013-04-06 20:19:00,
2013-04-06 16:34:00,46.9,26.0,30.26,East,80,3.0,-999.0,45,-99.99,,,0.00,weatherlink.com 1.10,2013-04-06 20:34:00,
2013-04-06 16:49:00,46.3,26.0,30.26,ESE,104,3.0,-999.0,46,-99.99,,,0.00,weatherlink.com 1.10,2013-04-06 20:49:00,
2013-04-06 17:04:00,46.6,27.0,30.26,SE,127,0.0,-999.0,47,-99.99,,,0.00,weatherlink.com 1.10,2013-04-06 21:04:00,
2013-04-06 17:19:00,46.0,27.0,30.26,SSE,166,9.0,-999.0,48,-99.99,,,0.00,weatherlink.com 1.10,2013-04-06 21:19:00,
2013-04-06 17:34:00,44.8,28.0,30.26,SSE,159,5.0,-999.0,52,-99.99,,,0.00,weatherlink.com 1.10,2013-04-06 21:34:00,
2013-04-06 17:49:00,44.6,29.0,30.27,SSE,161,6.0,-999.0,55,-99.99,,,0.00,weatherlink.com 1.10,2013-04-06 21:49:00,
2013-04-06 18:04:00,44.0,28.0,30.27,South,169,5.0,-999.0,54,-99.99,,,0.00,weatherlink.com 1.10,2013-04-06 22:04:00,
2013-04-06 18:19:00,43.8,29.0,30.27,South,182,11.0,-999.0,56,-99.99,,,0.00,weatherlink.com 1.10,2013-04-06 22:19:00,
2013-04-06 18:34:00,-999.0,-99.9,30.28,North,-999,-999.0,-999.0,-999,-99.99,,,0.00,weatherlink.com 1.10,2013-04-06 22:34:00,
2013-04-06 18:49:00,-999.0,-99.9,30.28,North,-999,-999.0,-999.0,-999,-99.99,,,0.00,weatherlink.com 1.10,2013-04-06 22:49:00,
2013-04-06 19:04:00,-999.0,-99.9,30.28,North,-999,-999.0,-999.0,-999,-99.99,,,0.00,weatherlink.com 1.10,2013-04-06 23:04:00,
2013-04-06 19:19:00,-999.0,-99.9,30.28,North,-999,-999.0,-999.0,-999,-99.99,,,0.00,weatherlink.com 1.10,2013-04-06 23:19:00,
2013-04-06 19:34:00,-999.0,-99.9,30.28,North,-999,-999.0,-999.0,-999,-99.99,,,0.00,weatherlink.com 1.10,2013-04-06 23:34:00,
2013-04-06 19:49:00,-999.0,-99.9,30.28,North,-999,-999.0,-999.0,-999,-99.99,,,0.00,weatherlink.com 1.10,2013-04-06 23:49:00,
2013-04-06 20:04:00,-999.0,-99.9,30.29,North,-999,-999.0,-999.0,-999,-99.99,,,0.00,weatherlink.com 1.10,2013-04-07 00:04:00,
2013-04-06 20:19:00,-999.0,-99.9,30.29,North,-999,-999.0,-999.0,-999,-99.99,,,0.00,weatherlink.com 1.10,2013-04-07 00:19:00,
2013-04-06 20:34:00,-999.0,-99.9,30.29,North,-999,-999.0,-999.0,-999,-99.99,,,0.00,weatherlink.com 1.10,2013-04-07 00:34:00,
2013-04-06 20:49:00,-999.0,-99.9,30.29,North,-999,-999.0,-999.0,-999,-99.99,,,0.00,weatherlink.com 1.10,2013-04-07 00:49:00,
2013-04-06 21:04:00,-999.0,-99.9,30.29,North,-999,-999.0,-999.0,-999,-99.99,,,0.00,weatherlink.com 1.10,2013-04-07 01:04:00,
2013-04-06 21:19:00,-999.0,-99.9,30.30,North,-999,-999.0,-999.0,-999,-99.99,,,0.00,weatherlink.com 1.10,2013-04-07 01:19:00,
2013-04-06 21:34:00,-999.0,-99.9,30.30,North,-999,-999.0,-999.0,-999,-99.99,,,0.00,weatherlink.com 1.10,2013-04-07 01:34:00,
2013-04-06 21:49:00,-999.0,-99.9,30.30,North,-999,-999.0,-999.0,-999,-99.99,,,0.00,weatherlink.com 1.10,2013-04-07 01:49:00,
2013-04-06 22:04:00,-999.0,-99.9,30.31,North,-999,-999.0,-999.0,-999,-99.99,,,0.00,weatherlink.com 1.10,2013-04-07 02:04:00,
2013-04-06 22:19:00,-999.0,-99.9,30.30,North,-999,-999.0,-999.0,-999,-99.99,,,0.00,weatherlink.com 1.10,2013-04-07 02:19:00,
2013-04-06 22:34:00,-999.0,-99.9,30.30,North,-999,-999.0,-999.0,-999,-99.99,,,0.00,weatherlink.com 1.10,2013-04-07 02:34:00,
2013-04-06 22:49:00,-999.0,-99.9,30.29,North,-999,-999.0,-999.0,-999,-99.99,,,0.00,weatherlink.com 1.10,2013-04-07 02:49:00,
2013-04-06 23:04:00,-999.0,-99.9,30.29,North,-999,-999.0,-999.0,-999,-99.99,,,0.00,weatherlink.com 1.10,2013-04-07 03:04:00,
2013-04-06 23:19:00,-999.0,-99.9,30.29,North,-999,-999.0,-999.0,-999,-99.99,,,0.00,weatherlink.com 1.10,2013-04-07 03:19:00,
2013-04-06 23:34:00,-999.0,-99.9,30.30,North,-999,-999.0,-999.0,-999,-99.99,,,0.00,weatherlink.com 1.10,2013-04-07 03:34:00,
2013-04-06 23:49:00,-999.0,-99.9,30.30,North,-999,-999.0,-999.0,-999,-99.99,,,0.00,weatherlink.com 1.10,2013-04-07 03:49:00,